sensor_id;sensor_type;location;lat;lon;timestamp;P1;durP1;ratioP1;P2;durP2;ratioP2
22080;SDS011;11207;59.512;18.050;2023-04-01T00:00:31;5.23;;;4.80;;
22080;SDS011;11207;59.512;18.050;2023-04-01T00:02:57;5.20;;;4.80;;
22080;SDS011;11207;59.512;18.050;2023-04-01T00:05:23;6.63;;;5.27;;
22080;SDS011;11207;59.512;18.050;2023-04-01T00:07:50;5.00;;;4.60;;
22080;SDS011;11207;59.512;18.050;2023-04-01T00:10:16;5.40;;;5.00;;
22080;SDS011;11207;59.512;18.050;2023-04-01T00:12:42;5.30;;;4.80;;
22080;SDS011;11207;59.512;18.050;2023-04-01T00:15:08;5.00;;;4.60;;
22080;SDS011;11207;59.512;18.050;2023-04-01T00:17:35;4.90;;;4.60;;
22080;SDS011;11207;59.512;18.050;2023-04-01T00:20:01;5.33;;;4.90;;
22080;SDS011;11207;59.512;18.050;2023-04-01T00:22:28;6.67;;;4.73;;
22080;SDS011;11207;59.512;18.050;2023-04-01T00:24:54;5.30;;;4.80;;
22080;SDS011;11207;59.512;18.050;2023-04-01T00:27:19;5.40;;;4.90;;
22080;SDS011;11207;59.512;18.050;2023-04-01T00:29:48;5.13;;;4.80;;
22080;SDS011;11207;59.512;18.050;2023-04-01T00:32:14;5.03;;;4.67;;
22080;SDS011;11207;59.512;18.050;2023-04-01T00:34:40;5.13;;;4.80;;
22080;SDS011;11207;59.512;18.050;2023-04-01T00:37:09;5.20;;;4.80;;
22080;SDS011;11207;59.512;18.050;2023-04-01T00:39:36;6.10;;;5.10;;
22080;SDS011;11207;59.512;18.050;2023-04-01T00:42:02;6.90;;;5.23;;
22080;SDS011;11207;59.512;18.050;2023-04-01T00:44:29;6.50;;;5.03;;
22080;SDS011;11207;59.512;18.050;2023-04-01T00:47:00;5.57;;;4.70;;
22080;SDS011;11207;59.512;18.050;2023-04-01T00:49:27;5.43;;;4.93;;
22080;SDS011;11207;59.512;18.050;2023-04-01T00:51:59;5.63;;;5.13;;
22080;SDS011;11207;59.512;18.050;2023-04-01T00:54:28;5.47;;;4.97;;
22080;SDS011;11207;59.512;18.050;2023-04-01T00:57:00;5.10;;;4.70;;
22080;SDS011;11207;59.512;18.050;2023-04-01T00:59:34;5.60;;;5.10;;
22080;SDS011;11207;59.512;18.050;2023-04-01T01:02:12;5.30;;;4.90;;
22080;SDS011;11207;59.512;18.050;2023-04-01T01:04:39;5.40;;;5.00;;
22080;SDS011;11207;59.512;18.050;2023-04-01T01:28:45;5.50;;;4.97;;
22080;SDS011;11207;59.512;18.050;2023-04-01T01:31:24;5.43;;;5.03;;
22080;SDS011;11207;59.512;18.050;2023-04-01T01:34:11;5.40;;;4.90;;
22080;SDS011;11207;59.512;18.050;2023-04-01T01:36:48;4.77;;;4.47;;
22080;SDS011;11207;59.512;18.050;2023-04-01T01:39:18;5.33;;;4.93;;
22080;SDS011;11207;59.512;18.050;2023-04-01T01:41:51;5.63;;;5.13;;
22080;SDS011;11207;59.512;18.050;2023-04-01T01:44:18;6.07;;;5.50;;
22080;SDS011;11207;59.512;18.050;2023-04-01T01:46:46;7.27;;;5.43;;
22080;SDS011;11207;59.512;18.050;2023-04-01T01:49:13;5.60;;;5.10;;
22080;SDS011;11207;59.512;18.050;2023-04-01T01:51:41;5.90;;;5.50;;
22080;SDS011;11207;59.512;18.050;2023-04-01T01:54:11;5.57;;;5.00;;
22080;SDS011;11207;59.512;18.050;2023-04-01T01:56:42;5.40;;;5.00;;
22080;SDS011;11207;59.512;18.050;2023-04-01T01:59:12;5.20;;;4.80;;
22080;SDS011;11207;59.512;18.050;2023-04-01T02:01:42;5.40;;;4.90;;
22080;SDS011;11207;59.512;18.050;2023-04-01T02:04:10;5.53;;;5.13;;
22080;SDS011;11207;59.512;18.050;2023-04-01T02:06:39;5.63;;;5.23;;
22080;SDS011;11207;59.512;18.050;2023-04-01T02:09:11;5.60;;;5.10;;
22080;SDS011;11207;59.512;18.050;2023-04-01T02:11:46;5.33;;;4.93;;
22080;SDS011;11207;59.512;18.050;2023-04-01T02:17:11;5.60;;;5.20;;
22080;SDS011;11207;59.512;18.050;2023-04-01T02:19:41;5.07;;;4.70;;
22080;SDS011;11207;59.512;18.050;2023-04-01T02:22:17;5.63;;;5.13;;
22080;SDS011;11207;59.512;18.050;2023-04-01T02:24:46;5.93;;;5.40;;
22080;SDS011;11207;59.512;18.050;2023-04-01T02:27:14;6.20;;;5.63;;
22080;SDS011;11207;59.512;18.050;2023-04-01T02:29:40;5.30;;;4.90;;
22080;SDS011;11207;59.512;18.050;2023-04-01T02:32:05;5.60;;;5.03;;
22080;SDS011;11207;59.512;18.050;2023-04-01T02:34:33;5.57;;;5.00;;
22080;SDS011;11207;59.512;18.050;2023-04-01T02:36:59;5.30;;;4.90;;
22080;SDS011;11207;59.512;18.050;2023-04-01T02:39:25;5.27;;;4.87;;
22080;SDS011;11207;59.512;18.050;2023-04-01T02:41:52;5.97;;;5.47;;
22080;SDS011;11207;59.512;18.050;2023-04-01T02:44:18;5.70;;;5.20;;
22080;SDS011;11207;59.512;18.050;2023-04-01T02:46:44;5.40;;;4.90;;
22080;SDS011;11207;59.512;18.050;2023-04-01T02:49:10;7.10;;;5.60;;
22080;SDS011;11207;59.512;18.050;2023-04-01T02:51:36;5.90;;;5.40;;
22080;SDS011;11207;59.512;18.050;2023-04-01T02:54:01;5.20;;;4.80;;
22080;SDS011;11207;59.512;18.050;2023-04-01T02:56:28;5.63;;;5.13;;
22080;SDS011;11207;59.512;18.050;2023-04-01T02:58:54;5.73;;;5.17;;
22080;SDS011;11207;59.512;18.050;2023-04-01T03:01:19;5.10;;;4.80;;
22080;SDS011;11207;59.512;18.050;2023-04-01T03:03:46;5.47;;;4.97;;
22080;SDS011;11207;59.512;18.050;2023-04-01T03:06:12;5.27;;;4.87;;
22080;SDS011;11207;59.512;18.050;2023-04-01T03:08:39;6.13;;;5.20;;
22080;SDS011;11207;59.512;18.050;2023-04-01T03:11:05;5.23;;;4.83;;
22080;SDS011;11207;59.512;18.050;2023-04-01T03:13:31;5.63;;;5.13;;
22080;SDS011;11207;59.512;18.050;2023-04-01T03:15:57;5.93;;;5.50;;
22080;SDS011;11207;59.512;18.050;2023-04-01T03:18:23;5.37;;;4.97;;
22080;SDS011;11207;59.512;18.050;2023-04-01T03:20:48;5.70;;;5.30;;
22080;SDS011;11207;59.512;18.050;2023-04-01T03:23:14;6.77;;;5.57;;
22080;SDS011;11207;59.512;18.050;2023-04-01T03:25:42;5.53;;;5.03;;
22080;SDS011;11207;59.512;18.050;2023-04-01T03:28:11;5.60;;;5.20;;
22080;SDS011;11207;59.512;18.050;2023-04-01T03:30:38;5.50;;;5.10;;
22080;SDS011;11207;59.512;18.050;2023-04-01T03:33:04;6.33;;;5.37;;
22080;SDS011;11207;59.512;18.050;2023-04-01T03:35:30;5.60;;;5.20;;
22080;SDS011;11207;59.512;18.050;2023-04-01T03:37:55;5.63;;;5.10;;
22080;SDS011;11207;59.512;18.050;2023-04-01T03:40:22;5.73;;;5.23;;
22080;SDS011;11207;59.512;18.050;2023-04-01T03:42:48;5.67;;;5.13;;
22080;SDS011;11207;59.512;18.050;2023-04-01T03:45:15;6.07;;;5.47;;
22080;SDS011;11207;59.512;18.050;2023-04-01T03:47:41;5.83;;;5.33;;
22080;SDS011;11207;59.512;18.050;2023-04-01T03:50:07;5.50;;;5.10;;
22080;SDS011;11207;59.512;18.050;2023-04-01T03:52:33;5.63;;;5.23;;
22080;SDS011;11207;59.512;18.050;2023-04-01T03:55:00;6.57;;;5.40;;
22080;SDS011;11207;59.512;18.050;2023-04-01T03:57:26;8.93;;;5.33;;
22080;SDS011;11207;59.512;18.050;2023-04-01T03:59:52;5.10;;;4.80;;
22080;SDS011;11207;59.512;18.050;2023-04-01T04:02:17;5.73;;;5.23;;
22080;SDS011;11207;59.512;18.050;2023-04-01T04:04:44;5.40;;;5.00;;
22080;SDS011;11207;59.512;18.050;2023-04-01T04:07:11;5.97;;;5.47;;
22080;SDS011;11207;59.512;18.050;2023-04-01T04:09:37;5.87;;;5.27;;
22080;SDS011;11207;59.512;18.050;2023-04-01T04:12:02;5.77;;;5.27;;
22080;SDS011;11207;59.512;18.050;2023-04-01T04:14:30;8.00;;;5.37;;
22080;SDS011;11207;59.512;18.050;2023-04-01T04:16:56;5.70;;;5.20;;
22080;SDS011;11207;59.512;18.050;2023-04-01T04:19:22;5.83;;;5.13;;
22080;SDS011;11207;59.512;18.050;2023-04-01T04:21:47;6.60;;;5.73;;
22080;SDS011;11207;59.512;18.050;2023-04-01T04:24:13;5.53;;;5.10;;
22080;SDS011;11207;59.512;18.050;2023-04-01T04:26:38;6.50;;;5.70;;
22080;SDS011;11207;59.512;18.050;2023-04-01T04:29:04;6.00;;;5.53;;
22080;SDS011;11207;59.512;18.050;2023-04-01T04:31:30;5.17;;;4.87;;
22080;SDS011;11207;59.512;18.050;2023-04-01T04:33:56;6.30;;;5.37;;
22080;SDS011;11207;59.512;18.050;2023-04-01T04:36:23;5.40;;;5.00;;
22080;SDS011;11207;59.512;18.050;2023-04-01T04:38:49;5.70;;;5.30;;
22080;SDS011;11207;59.512;18.050;2023-04-01T04:41:15;7.33;;;5.50;;
22080;SDS011;11207;59.512;18.050;2023-04-01T04:43:47;6.23;;;5.63;;
22080;SDS011;11207;59.512;18.050;2023-04-01T04:46:15;5.93;;;5.30;;
22080;SDS011;11207;59.512;18.050;2023-04-01T04:48:40;5.70;;;5.10;;
22080;SDS011;11207;59.512;18.050;2023-04-01T04:51:06;5.70;;;5.10;;
22080;SDS011;11207;59.512;18.050;2023-04-01T04:53:32;6.07;;;5.53;;
22080;SDS011;11207;59.512;18.050;2023-04-01T04:55:57;5.90;;;5.40;;
22080;SDS011;11207;59.512;18.050;2023-04-01T04:58:23;5.63;;;5.20;;
22080;SDS011;11207;59.512;18.050;2023-04-01T05:00:49;5.60;;;5.17;;
22080;SDS011;11207;59.512;18.050;2023-04-01T05:03:15;6.03;;;5.00;;
22080;SDS011;11207;59.512;18.050;2023-04-01T05:05:47;5.47;;;5.00;;
22080;SDS011;11207;59.512;18.050;2023-04-01T05:08:14;5.20;;;4.70;;
22080;SDS011;11207;59.512;18.050;2023-04-01T05:10:40;5.60;;;5.07;;
22080;SDS011;11207;59.512;18.050;2023-04-01T05:13:05;5.67;;;5.23;;
22080;SDS011;11207;59.512;18.050;2023-04-01T05:15:32;5.43;;;5.03;;
22080;SDS011;11207;59.512;18.050;2023-04-01T05:17:58;5.50;;;5.10;;
22080;SDS011;11207;59.512;18.050;2023-04-01T05:20:23;5.80;;;5.30;;
22080;SDS011;11207;59.512;18.050;2023-04-01T05:22:49;5.90;;;5.40;;
22080;SDS011;11207;59.512;18.050;2023-04-01T05:25:15;5.37;;;4.97;;
22080;SDS011;11207;59.512;18.050;2023-04-01T05:27:40;5.70;;;5.17;;
22080;SDS011;11207;59.512;18.050;2023-04-01T05:30:06;5.40;;;4.97;;
22080;SDS011;11207;59.512;18.050;2023-04-01T05:32:32;5.23;;;4.83;;
22080;SDS011;11207;59.512;18.050;2023-04-01T05:34:58;5.43;;;5.03;;
22080;SDS011;11207;59.512;18.050;2023-04-01T05:37:23;5.83;;;5.33;;
22080;SDS011;11207;59.512;18.050;2023-04-01T05:39:49;6.10;;;5.60;;
22080;SDS011;11207;59.512;18.050;2023-04-01T05:42:15;5.65;;;5.15;;
22080;SDS011;11207;59.512;18.050;2023-04-01T05:44:41;6.33;;;5.30;;
22080;SDS011;11207;59.512;18.050;2023-04-01T05:47:06;5.57;;;5.10;;
22080;SDS011;11207;59.512;18.050;2023-04-01T05:49:32;5.93;;;5.40;;
22080;SDS011;11207;59.512;18.050;2023-04-01T05:51:58;5.07;;;4.77;;
22080;SDS011;11207;59.512;18.050;2023-04-01T05:54:24;8.07;;;5.27;;
22080;SDS011;11207;59.512;18.050;2023-04-01T05:56:50;5.57;;;5.17;;
22080;SDS011;11207;59.512;18.050;2023-04-01T05:59:15;5.10;;;4.73;;
22080;SDS011;11207;59.512;18.050;2023-04-01T06:01:41;5.70;;;5.30;;
22080;SDS011;11207;59.512;18.050;2023-04-01T06:04:09;5.10;;;4.70;;
22080;SDS011;11207;59.512;18.050;2023-04-01T06:06:38;5.57;;;5.07;;
22080;SDS011;11207;59.512;18.050;2023-04-01T06:09:27;5.40;;;5.00;;
22080;SDS011;11207;59.512;18.050;2023-04-01T06:14:56;5.73;;;5.07;;
22080;SDS011;11207;59.512;18.050;2023-04-01T06:20:39;5.47;;;4.97;;
22080;SDS011;11207;59.512;18.050;2023-04-01T06:23:19;5.27;;;4.87;;
22080;SDS011;11207;59.512;18.050;2023-04-01T06:26:03;5.63;;;5.13;;
22080;SDS011;11207;59.512;18.050;2023-04-01T06:28:43;5.47;;;4.80;;
22080;SDS011;11207;59.512;18.050;2023-04-01T06:34:13;5.90;;;5.43;;
22080;SDS011;11207;59.512;18.050;2023-04-01T06:58:21;5.30;;;4.87;;
22080;SDS011;11207;59.512;18.050;2023-04-01T07:01:00;5.40;;;4.90;;
22080;SDS011;11207;59.512;18.050;2023-04-01T07:03:30;4.83;;;4.43;;
22080;SDS011;11207;59.512;18.050;2023-04-01T07:06:04;7.73;;;5.50;;
22080;SDS011;11207;59.512;18.050;2023-04-01T07:08:38;5.73;;;5.17;;
22080;SDS011;11207;59.512;18.050;2023-04-01T07:11:11;5.50;;;5.00;;
22080;SDS011;11207;59.512;18.050;2023-04-01T07:13:49;5.23;;;4.80;;
22080;SDS011;11207;59.512;18.050;2023-04-01T07:19:08;5.73;;;5.13;;
22080;SDS011;11207;59.512;18.050;2023-04-01T07:21:37;5.87;;;5.37;;
22080;SDS011;11207;59.512;18.050;2023-04-01T07:24:27;6.60;;;5.27;;
22080;SDS011;11207;59.512;18.050;2023-04-01T07:26:58;5.60;;;4.90;;
22080;SDS011;11207;59.512;18.050;2023-04-01T07:29:24;8.27;;;4.93;;
22080;SDS011;11207;59.512;18.050;2023-04-01T07:40:49;4.90;;;4.50;;
22080;SDS011;11207;59.512;18.050;2023-04-01T07:49:17;7.20;;;4.60;;
22080;SDS011;11207;59.512;18.050;2023-04-01T07:57:08;7.60;;;4.70;;
22080;SDS011;11207;59.512;18.050;2023-04-01T08:00:10;4.80;;;4.40;;
22080;SDS011;11207;59.512;18.050;2023-04-01T08:10:49;6.53;;;4.57;;
22080;SDS011;11207;59.512;18.050;2023-04-01T08:13:36;5.50;;;3.83;;
22080;SDS011;11207;59.512;18.050;2023-04-01T08:19:15;11.30;;;3.70;;
22080;SDS011;11207;59.512;18.050;2023-04-01T08:21:44;4.10;;;3.80;;
22080;SDS011;11207;59.512;18.050;2023-04-01T08:24:17;3.70;;;3.50;;
22080;SDS011;11207;59.512;18.050;2023-04-01T08:27:06;4.10;;;3.53;;
22080;SDS011;11207;59.512;18.050;2023-04-01T08:29:49;4.00;;;3.70;;
22080;SDS011;11207;59.512;18.050;2023-04-01T08:32:41;4.53;;;3.83;;
22080;SDS011;11207;59.512;18.050;2023-04-01T08:35:31;3.70;;;3.40;;
22080;SDS011;11207;59.512;18.050;2023-04-01T08:38:49;3.70;;;3.50;;
22080;SDS011;11207;59.512;18.050;2023-04-01T08:40:55;7.13;;;3.97;;
22080;SDS011;11207;59.512;18.050;2023-04-01T08:54:54;5.17;;;3.40;;
22080;SDS011;11207;59.512;18.050;2023-04-01T09:00:46;3.70;;;3.50;;
22080;SDS011;11207;59.512;18.050;2023-04-01T09:20:06;4.93;;;3.33;;
22080;SDS011;11207;59.512;18.050;2023-04-01T09:25:29;3.43;;;3.17;;
22080;SDS011;11207;59.512;18.050;2023-04-01T09:28:18;3.20;;;3.00;;
22080;SDS011;11207;59.512;18.050;2023-04-01T09:30:58;6.17;;;3.20;;
22080;SDS011;11207;59.512;18.050;2023-04-01T09:33:42;3.40;;;3.10;;
22080;SDS011;11207;59.512;18.050;2023-04-01T09:39:34;3.30;;;3.10;;
22080;SDS011;11207;59.512;18.050;2023-04-01T09:44:53;3.27;;;3.07;;
22080;SDS011;11207;59.512;18.050;2023-04-01T09:53:01;3.10;;;2.90;;
22080;SDS011;11207;59.512;18.050;2023-04-01T10:02:04;3.37;;;3.07;;
22080;SDS011;11207;59.512;18.050;2023-04-01T10:04:31;3.73;;;2.90;;
22080;SDS011;11207;59.512;18.050;2023-04-01T10:10:07;3.10;;;2.80;;
22080;SDS011;11207;59.512;18.050;2023-04-01T10:29:45;2.90;;;2.70;;
22080;SDS011;11207;59.512;18.050;2023-04-01T10:32:36;3.80;;;2.80;;
22080;SDS011;11207;59.512;18.050;2023-04-01T10:51:22;3.00;;;2.80;;
22080;SDS011;11207;59.512;18.050;2023-04-01T10:54:13;2.93;;;2.73;;
22080;SDS011;11207;59.512;18.050;2023-04-01T10:56:56;3.43;;;2.40;;
22080;SDS011;11207;59.512;18.050;2023-04-01T11:02:48;4.00;;;2.60;;
22080;SDS011;11207;59.512;18.050;2023-04-01T11:05:32;3.87;;;2.80;;
22080;SDS011;11207;59.512;18.050;2023-04-01T11:16:47;4.80;;;2.50;;
22080;SDS011;11207;59.512;18.050;2023-04-01T11:22:42;6.30;;;2.57;;
22080;SDS011;11207;59.512;18.050;2023-04-01T11:27:59;2.60;;;2.40;;
22080;SDS011;11207;59.512;18.050;2023-04-01T11:36:17;2.80;;;2.60;;
22080;SDS011;11207;59.512;18.050;2023-04-01T11:39:01;2.70;;;2.50;;
22080;SDS011;11207;59.512;18.050;2023-04-01T11:41:59;2.87;;;2.33;;
22080;SDS011;11207;59.512;18.050;2023-04-01T11:44:37;2.70;;;2.50;;
22080;SDS011;11207;59.512;18.050;2023-04-01T12:01:37;2.53;;;2.43;;
22080;SDS011;11207;59.512;18.050;2023-04-01T12:04:17;3.37;;;2.50;;
22080;SDS011;11207;59.512;18.050;2023-04-01T12:07:12;2.47;;;2.37;;
22080;SDS011;11207;59.512;18.050;2023-04-01T12:18:46;2.53;;;2.43;;
22080;SDS011;11207;59.512;18.050;2023-04-01T12:21:37;3.00;;;2.80;;
22080;SDS011;11207;59.512;18.050;2023-04-01T12:24:20;2.70;;;2.50;;
22080;SDS011;11207;59.512;18.050;2023-04-01T12:30:05;2.40;;;2.30;;
22080;SDS011;11207;59.512;18.050;2023-04-01T12:51:37;2.73;;;2.50;;
22080;SDS011;11207;59.512;18.050;2023-04-01T12:54:40;3.00;;;2.60;;
22080;SDS011;11207;59.512;18.050;2023-04-01T12:57:27;2.50;;;2.40;;
22080;SDS011;11207;59.512;18.050;2023-04-01T13:08:48;3.40;;;2.47;;
22080;SDS011;11207;59.512;18.050;2023-04-01T13:16:39;2.43;;;2.30;;
22080;SDS011;11207;59.512;18.050;2023-04-01T13:24:54;2.70;;;2.50;;
22080;SDS011;11207;59.512;18.050;2023-04-01T13:27:44;3.00;;;2.80;;
22080;SDS011;11207;59.512;18.050;2023-04-01T13:44:41;2.67;;;2.57;;
22080;SDS011;11207;59.512;18.050;2023-04-01T14:09:49;2.80;;;2.47;;
22080;SDS011;11207;59.512;18.050;2023-04-01T14:12:36;2.80;;;2.70;;
22080;SDS011;11207;59.512;18.050;2023-04-01T14:23:31;2.90;;;2.70;;
22080;SDS011;11207;59.512;18.050;2023-04-01T14:29:13;2.90;;;2.70;;
22080;SDS011;11207;59.512;18.050;2023-04-01T14:32:06;2.80;;;2.70;;
22080;SDS011;11207;59.512;18.050;2023-04-01T14:54:12;2.93;;;2.70;;
22080;SDS011;11207;59.512;18.050;2023-04-01T14:56:50;3.13;;;2.93;;
22080;SDS011;11207;59.512;18.050;2023-04-01T14:59:31;2.80;;;2.70;;
22080;SDS011;11207;59.512;18.050;2023-04-01T15:21:57;4.67;;;2.80;;
22080;SDS011;11207;59.512;18.050;2023-04-01T15:30:02;4.37;;;3.00;;
22080;SDS011;11207;59.512;18.050;2023-04-01T15:36:04;3.23;;;3.03;;
22080;SDS011;11207;59.512;18.050;2023-04-01T15:39:03;3.57;;;2.70;;
22080;SDS011;11207;59.512;18.050;2023-04-01T15:50:02;3.30;;;3.00;;
22080;SDS011;11207;59.512;18.050;2023-04-01T15:52:56;3.90;;;3.13;;
22080;SDS011;11207;59.512;18.050;2023-04-01T15:55:54;3.50;;;3.20;;
22080;SDS011;11207;59.512;18.050;2023-04-01T16:03:54;3.10;;;2.90;;
22080;SDS011;11207;59.512;18.050;2023-04-01T16:09:21;3.70;;;3.40;;
22080;SDS011;11207;59.512;18.050;2023-04-01T16:17:29;3.70;;;2.90;;
22080;SDS011;11207;59.512;18.050;2023-04-01T16:23:04;3.13;;;2.93;;
22080;SDS011;11207;59.512;18.050;2023-04-01T16:28:19;3.30;;;3.10;;
22080;SDS011;11207;59.512;18.050;2023-04-01T16:31:08;3.97;;;3.30;;
22080;SDS011;11207;59.512;18.050;2023-04-01T16:33:59;3.20;;;3.00;;
22080;SDS011;11207;59.512;18.050;2023-04-01T16:44:54;5.33;;;3.60;;
22080;SDS011;11207;59.512;18.050;2023-04-01T16:47:22;5.27;;;3.30;;
22080;SDS011;11207;59.512;18.050;2023-04-01T16:50:14;3.50;;;3.27;;
22080;SDS011;11207;59.512;18.050;2023-04-01T16:59:29;3.57;;;3.20;;
22080;SDS011;11207;59.512;18.050;2023-04-01T17:10:06;9.37;;;3.60;;
22080;SDS011;11207;59.512;18.050;2023-04-01T17:53:12;8.03;;;3.60;;
22080;SDS011;11207;59.512;18.050;2023-04-01T17:59:16;7.33;;;3.87;;
22080;SDS011;11207;59.512;18.050;2023-04-01T18:02:15;7.00;;;3.77;;
22080;SDS011;11207;59.512;18.050;2023-04-01T19:22:13;6.67;;;4.50;;
22080;SDS011;11207;59.512;18.050;2023-04-01T19:27:53;6.13;;;4.47;;
22080;SDS011;11207;59.512;18.050;2023-04-01T19:33:57;5.87;;;3.83;;
22080;SDS011;11207;59.512;18.050;2023-04-01T19:44:51;7.10;;;4.27;;
22080;SDS011;11207;59.512;18.050;2023-04-01T19:47:38;8.73;;;4.00;;
22080;SDS011;11207;59.512;18.050;2023-04-01T19:56:19;5.40;;;3.63;;
22080;SDS011;11207;59.512;18.050;2023-04-01T20:01:50;5.07;;;4.23;;
22080;SDS011;11207;59.512;18.050;2023-04-01T20:04:41;4.60;;;3.90;;
22080;SDS011;11207;59.512;18.050;2023-04-01T20:07:18;5.87;;;4.10;;
22080;SDS011;11207;59.512;18.050;2023-04-01T20:12:51;9.27;;;4.70;;
22080;SDS011;11207;59.512;18.050;2023-04-01T20:15:38;7.27;;;4.43;;
22080;SDS011;11207;59.512;18.050;2023-04-01T20:18:18;7.13;;;3.93;;
22080;SDS011;11207;59.512;18.050;2023-04-01T20:20:58;6.77;;;4.13;;
22080;SDS011;11207;59.512;18.050;2023-04-01T20:23:33;6.50;;;4.10;;
22080;SDS011;11207;59.512;18.050;2023-04-01T20:26:08;5.70;;;4.30;;
22080;SDS011;11207;59.512;18.050;2023-04-01T20:28:42;5.27;;;4.17;;
22080;SDS011;11207;59.512;18.050;2023-04-01T20:31:24;4.87;;;4.13;;
22080;SDS011;11207;59.512;18.050;2023-04-01T20:34:08;5.33;;;4.13;;
22080;SDS011;11207;59.512;18.050;2023-04-01T20:39:47;7.30;;;4.23;;
22080;SDS011;11207;59.512;18.050;2023-04-01T20:42:59;8.33;;;4.83;;
22080;SDS011;11207;59.512;18.050;2023-04-01T20:45:32;8.30;;;4.20;;
22080;SDS011;11207;59.512;18.050;2023-04-01T20:53:15;5.43;;;4.67;;
22080;SDS011;11207;59.512;18.050;2023-04-01T20:58:46;4.03;;;3.67;;
22080;SDS011;11207;59.512;18.050;2023-04-01T21:04:03;6.60;;;3.90;;
22080;SDS011;11207;59.512;18.050;2023-04-01T21:06:48;9.57;;;4.10;;
22080;SDS011;11207;59.512;18.050;2023-04-01T21:09:46;4.30;;;3.70;;
22080;SDS011;11207;59.512;18.050;2023-04-01T21:15:04;6.27;;;4.00;;
22080;SDS011;11207;59.512;18.050;2023-04-01T21:18:04;4.87;;;4.00;;
22080;SDS011;11207;59.512;18.050;2023-04-01T21:20:45;7.57;;;3.80;;
22080;SDS011;11207;59.512;18.050;2023-04-01T21:40:55;7.20;;;4.47;;
22080;SDS011;11207;59.512;18.050;2023-04-01T21:46:15;5.27;;;4.13;;
22080;SDS011;11207;59.512;18.050;2023-04-01T21:54:40;7.60;;;4.40;;
22080;SDS011;11207;59.512;18.050;2023-04-01T22:00:07;6.23;;;4.33;;
22080;SDS011;11207;59.512;18.050;2023-04-01T22:05:33;6.33;;;4.73;;
22080;SDS011;11207;59.512;18.050;2023-04-01T22:13:52;8.97;;;4.70;;
22080;SDS011;11207;59.512;18.050;2023-04-01T22:16:29;7.27;;;4.70;;
22080;SDS011;11207;59.512;18.050;2023-04-01T22:19:20;6.97;;;4.80;;
22080;SDS011;11207;59.512;18.050;2023-04-01T22:22:15;7.13;;;4.47;;
22080;SDS011;11207;59.512;18.050;2023-04-01T22:30:23;6.40;;;4.20;;
22080;SDS011;11207;59.512;18.050;2023-04-01T22:41:17;8.10;;;3.90;;
22080;SDS011;11207;59.512;18.050;2023-04-01T22:43:51;4.73;;;3.83;;
22080;SDS011;11207;59.512;18.050;2023-04-01T22:49:20;9.40;;;4.43;;
22080;SDS011;11207;59.512;18.050;2023-04-01T22:54:39;6.97;;;4.40;;
22080;SDS011;11207;59.512;18.050;2023-04-01T23:05:28;8.70;;;5.07;;
22080;SDS011;11207;59.512;18.050;2023-04-01T23:10:47;5.37;;;3.90;;
22080;SDS011;11207;59.512;18.050;2023-04-01T23:13:38;4.83;;;4.33;;
22080;SDS011;11207;59.512;18.050;2023-04-01T23:16:08;4.77;;;4.27;;
22080;SDS011;11207;59.512;18.050;2023-04-01T23:21:18;4.53;;;4.10;;
22080;SDS011;11207;59.512;18.050;2023-04-01T23:26:49;4.33;;;3.93;;
22080;SDS011;11207;59.512;18.050;2023-04-01T23:29:31;7.77;;;4.07;;
22080;SDS011;11207;59.512;18.050;2023-04-01T23:32:01;6.80;;;4.33;;
22080;SDS011;11207;59.512;18.050;2023-04-01T23:34:32;5.50;;;4.00;;
22080;SDS011;11207;59.512;18.050;2023-04-01T23:37:12;6.27;;;4.67;;
22080;SDS011;11207;59.512;18.050;2023-04-01T23:39:47;6.40;;;5.07;;
22080;SDS011;11207;59.512;18.050;2023-04-01T23:44:53;7.90;;;4.40;;
22080;SDS011;11207;59.512;18.050;2023-04-01T23:47:31;8.33;;;4.63;;
22080;SDS011;11207;59.512;18.050;2023-04-01T23:50:12;9.43;;;4.53;;
22080;SDS011;11207;59.512;18.050;2023-04-01T23:52:47;4.70;;;4.00;;
